Scroll down
FLIGHT INFORMATION
Southern Air

SOO934

At Arrival Gate

OBBI
 ZGSZ
DATE: 2022-06-23
GATE:  -
GATE DEPARTURE: 08:28
TAKEOFF: 08:44
DATE: 2022-06-23
GATE:  -
LANDING: 16:17
GATE ARRIVAL: 16:21
FLIGHT DATA
Crew: 
Speed: 
509 kts
Altitude: 
37,028 ft
Stage Length: 
3,425.7 nm
Block Time: 
7.8 hrs
Flight Time: 
7.6 hrs
Fuel Used: 
133,988 lb
Cleared Route: OBBI BHR TULUB DENVO PATOM EMISA KAPAX ORSIS ENANO TOSNA UMEVU KAPUM GIDOB ORBOL LORID VEKOV OBREV LAGTA RUKOR NOLSU SUTVO LALDO GIDIL IMLOT KATUS PEDEX KINOX EGPIC EGRON BIVIN LAKIV DALDA TELEM SASRO DAMAK ARADO GOMTI PRA EKIGA BPL GOGVE GOLOX ASOPO BEGUM IBUDA ARIVO SEBMA JJS CEA SUMAG DAKID CTG CTG25 CHILA 54LSO LSO LINSO GMA MAKUL GULOT SGM LXI ADBAG MEPAN BSE DUDIT LBN ATLAT BIPOP AGRAV AVPAM GYA POU ZGSZ
TRACK DATA
50,000 ft 1,000 kts
AIRCRAFT INFO AND CUMULATIVE STATS
Aircraft Type: 
B77LF
Registration: 
SELCAL: 
PSAJ
MSN/LN: 
37987 / 852
Operator: 
Total Flights: 
3
Total Block Time: 
14.2 hrs
Total Flight Time: 
13.5 hrs
Total Fuel Used: 
220,929 lb
DATALINK LOG | Newest first | Current as of: 2022-08-16 07:45:04
LABEL SEQUENCE CONTENT Dn/Up
QD193716:21 22.1▼ Dn
QC153416:17▼ Dn
QA310208:28 156.1▼ Dn
2U1246ZGSZ 231200Z 18006MPS CAVOK 28/25 Q1008 NOSIG▲ Up
2U1246VHHH 231200Z 16013KT 9999 FEW020 29/24 Q1009 NOSIG▲ Up
2U1245OBBI 231200Z 04007KT 360V060 8000 NSC 35/25 Q1000 NOSIG▲ Up
2S1245OBBI ZGSZ VHHH▼ Dn
A31244CLEARED TO ZGSZ VIA BHR N685 TULUB B457 EMISA N685 GIDOB N300 LALDO A791 LAKIV N894 TELEM A791 CEA B465 SUMAG B465 CTG A599 CHILA A599 LINSO A599 GYA B330 POU SAR9XA . SQUAWK 1434.▲ Up
B31244OBBI ZGSZ PAC934 N775SA ▼ Dn
Q01042[LINK ACK]▲ Up
Q01042[LINK TEST]▼ Dn


AIRCRAFT HISTORY
FLIGHT DATE FLIGHT NO. ORIGIN DESTINATION CLEARED ROUTE BLOCK TIME FLIGHT TIME FUEL USED PILOT
2022-06-23SOO934OBBI ZGSZ OBBI BHR TULUB DENVO PATOM EMISA KAPAX ORSIS ENANO TOSNA UMEVU KAPUM GIDOB ORBOL LORID VEKOV OBREV LAGTA RUKOR NOLSU SUTVO LALDO GIDIL IMLOT KATUS PEDEX KINOX EGPIC EGRON BIVIN LAKIV DALDA TELEM SASRO DAMAK ARADO GOMTI PRA EKIGA BPL GOGVE GOLOX ASOPO BEGUM IBUDA ARIVO SEBMA JJS CEA SUMAG DAKID CTG CTG25 CHILA 54LSO LSO LINSO GMA MAKUL GULOT SGM LXI ADBAG MEPAN BSE DUDIT LBN ATLAT BIPOP AGRAV AVPAM GYA POU ZGSZ7.8 hrs7.6 hrs133,988 lbAllan Burek
2021-02-19SOO9775OLBA OBBI OLBA ELIKA VELOX LEDRA BIRES STEPA PASOS GENIV SERMA DATOK TAKSU KARIK ULINA ELETA TAMIM PETRA DEESA TAMRO NOTLI LOXOM MOGON EMARO DEBOL MAANI GESOR NADEN DASVA OTERA NAGTO RABKA SIBGA LADNA OBBI2.8 hrs2.6 hrs31,984 lbAllan Burek
2020-12-13SOO5632EDDP OLBA EDDP DRN RIKLU OMELO GOLOP KOPIT ABRAX ODNEM ERGOM TIMUR XANEX GASRU ADORU ATVEP ULMAR EKI TUMER RESLI UNEPI LEMDA VAPEK KETEK UMDOT VESAR BAPAX ALSUS BALMA OLBA3.6 hrs3.3 hrs54,957 lbTiago Simoes